Relevés horaires Bouveret (Suisse)


Relevés horaires à Bouveret - Vendredi 01 Mai 2026
Heure UTC1 Température [°C] Vent [km/h] Hum. [%] Pres.4 [hPa] Visi. [Km] Nébu. [octa] Préc.5 [mm] Cond.
2m. Res. Ros. Dir.2 Vit. Moy. Raf.3
23:00 15.9 15.9 11.3 ONO 3.7 -- 9.3 74 1023.5 -- -- -- --
22:00 14.2 14.2 9.4 SE 3.7 -- 7.4 73 1023.3(1.1/3h) -- -- -- --
21:00 15.1 15.1 9.3 SE 5.6 -- 13.0 68 1022.8(1.3/3h) -- -- -- --
20:00 16.0 16.0 8.9 SE 7.4 -- 11.1 63 1022.3(1.2/3h) -- -- -- --
19:00 17.0 17.0 9.5 SSE 3.7 -- 3.7 61 1021.7(0.5/3h) -- -- -- --
18:00 18.0 18.0 9.4 E 0.0 -- 9.3 57 1020.9(-0.6/3h) -- -- -- --
17:00 17.9 17.9 8.3 O 3.7 -- 5.6 53 1020.8(-1.4/3h) -- -- -- --
16:00 17.4 17.4 8.2 N 3.7 -- 5.6 55 1021.1(-1.8/3h) -- -- -- --
15:00 17.0 17.0 6.7 ONO 5.6 -- 9.3 51 1021.7(-1.9/3h) -- -- -- --
14:00 15.9 15.9 6.1 N 1.9 -- 5.6 52 1022.5(-1.8/3h) -- -- -- --
13:00 14.9 14.9 6.3 NO 3.7 -- 9.3 56 1023.4(-1.4/3h) -- -- -- --
12:00 14.2 14 6.3 NNO 7.4 -- 13.0 59 1024.2(-0.8/3h) -- -- -- --
11:00 13.6 13 6.4 NO 9.3 -- 11.1 62 1024.8(-0.3/3h) -- -- -- --
10:00 12.9 12.2 5.3 NO 9.3 -- 13.0 60 1025.2(0.2/3h) -- -- -- --
09:00 12.6 11.8 5.5 NO 9.3 -- 13.0 62 1025.3(0.5/3h) -- -- -- --
08:00 12.2 11.7 5.0 ONO 7.4 -- 13.0 61 1025.3(0.8/3h) -- -- -- --
07:00 12.1 11.2 4.6 ONO 9.3 -- 11.1 60 1025.1(1.3/3h) -- -- -- --
06:00 12.1 11.6 3.5 ONO 7.4 -- 16.7 56 1024.8(0.9/3h) -- -- -- --
05:00 10.7 10.7 6.9 SSO 3.7 -- 9.3 77 1024.8(0.8/3h) -- -- -- --
04:00 10.6 10.6 5.9 SSO 3.7 -- 14.8 73 1024(0.2/3h) -- -- -- --
03:00 12.7 12.3 4.8 OSO 7.4 -- 16.7 59 1023.8(0.7/3h) -- -- -- --
02:00 12.0 11.9 6.6 SSO 5.6 -- 13.0 69 1023.7(0.8/3h) -- -- -- --
01:00 13.9 13.4 5.9 ONO 9.3 -- 16.7 58 1023.3(1.2/3h) -- -- -- --
00:00 14.3 13.4 6.2 O 13.0 -- 25.9 58 1022.8(1.2/3h) -- -- -- --

1 Coordinated Universal Time. Actuellement il est 08:00 locale et 06:00 UTC.

2 Le vent souffle depuis la direction indiquée vers la direction oposée.

3 Les rafales max. sont disponible 40 min après l'heure du relevé.

4 Pour les stations d'altitude (plus de 600m) le géopotentiel du niveau le plus proche de la pression obligatoire est indiqué.

5 Les stations disposant d'un diffuseur peuvent indiquer "trace". Cela signifie que des précipitations ont touchés le sol mais que la quantité est inférieure à 0.1 mm.

Copyright

Les données affichées sur cette page sont la propriété exclusive de Météo Suisse.

Récapitulatif de la journée
Température [°C] Vent [km/h] Ensoleillement4 [h] Precipitations totale5 [mm] Pression [Hpa]
Min1 Max.2 Moy.3 Max. Min Max.
10.0 18.1 0 25.9 0 h 0 min 0 1020.8 1025.3

1 Température minimale relevée entre 18:00 UTC la veille et 18:00 UTC le jour donné.

2 Température maximale relevée entre 06:00 UTC le jour donné et 06:00 UTC le lendemain.

3 Vent moyen de la journée basé sur les relevés horaires.

4 Ensoleillement en heures relevé entre 06:00 UTC la veille et 06:00 UTC le jour donné.

5 Précipitations totales tombées entre 06:00 UTC la jour donné et 06:00 UTC le lendemain.

Graphiques horaires